createdAt,value
2022-08-27T00:00:30.886Z,19.8
2022-08-27T00:01:47.990Z,18.7
2022-08-27T00:03:05.094Z,17.9
2022-08-27T00:04:22.198Z,20.7
2022-08-27T00:05:39.302Z,17.9
2022-08-27T00:06:56.406Z,19
2022-08-27T00:08:13.510Z,18.5
2022-08-27T00:09:30.614Z,17.4
2022-08-27T00:10:47.718Z,19.5
2022-08-27T00:12:04.822Z,19.7
2022-08-27T00:13:21.926Z,18.3
2022-08-27T00:14:38.046Z,17.8
2022-08-27T00:15:55.150Z,20.9
2022-08-27T00:17:12.255Z,19.3
2022-08-27T00:18:29.359Z,19
2022-08-27T00:19:46.463Z,17.8
2022-08-27T00:21:03.567Z,17.7
2022-08-27T00:22:20.671Z,18.4
2022-08-27T00:23:37.775Z,18.2
2022-08-27T00:24:54.879Z,17.6
2022-08-27T00:26:11.983Z,17.3
2022-08-27T00:27:29.087Z,20
2022-08-27T00:28:46.191Z,19.4
2022-08-27T00:30:03.295Z,17.6
2022-08-27T00:31:19.416Z,18
2022-08-27T00:32:36.520Z,17.8
2022-08-27T00:33:53.624Z,17.3
2022-08-27T00:35:10.728Z,17.5
2022-08-27T00:36:27.833Z,18
2022-08-27T00:37:44.937Z,17.9
2022-08-27T00:39:02.041Z,18.2
2022-08-27T00:40:19.145Z,17.9
2022-08-27T00:41:36.249Z,18.2
2022-08-27T00:42:53.353Z,18
2022-08-27T00:44:10.457Z,17.8
2022-08-27T00:45:27.561Z,18.8
2022-08-27T00:46:44.666Z,19
2022-08-27T00:48:01.770Z,18.6
2022-08-27T00:49:17.890Z,20.6
2022-08-27T00:50:34.994Z,19.7
2022-08-27T00:51:52.098Z,19
2022-08-27T00:53:09.202Z,19.5
2022-08-27T00:54:26.306Z,20
2022-08-27T00:55:43.411Z,20.9
2022-08-27T00:57:00.515Z,20.5
2022-08-27T00:58:17.619Z,20.5
2022-08-27T00:59:34.723Z,20.7
2022-08-27T01:00:51.827Z,20.9
2022-08-27T01:02:08.931Z,20.5
2022-08-27T01:03:26.035Z,19.7
2022-08-27T01:04:43.139Z,20.4
2022-08-27T01:05:59.260Z,21.1
2022-08-27T01:07:16.364Z,20.6
2022-08-27T01:08:33.468Z,21.3
2022-08-27T01:09:50.572Z,20.5
2022-08-27T01:11:07.676Z,22.1
2022-08-27T01:12:24.780Z,23.5
2022-08-27T01:13:41.884Z,22.1
2022-08-27T01:14:58.988Z,23.7
2022-08-27T01:16:16.092Z,22.2
2022-08-27T01:17:33.196Z,21.6
2022-08-27T01:18:50.301Z,22
2022-08-27T01:20:07.405Z,23.5
2022-08-27T01:21:24.509Z,23.4
2022-08-27T01:22:40.629Z,24.1
2022-08-27T01:23:57.733Z,22.3
2022-08-27T01:25:14.837Z,24.6
2022-08-27T01:26:31.941Z,26.1
2022-08-27T01:27:49.046Z,23.2
2022-08-27T01:29:06.150Z,25.4
2022-08-27T01:30:23.254Z,23.4
2022-08-27T01:31:40.358Z,23.9
2022-08-27T01:32:57.462Z,26.3
2022-08-27T01:34:14.566Z,25.5
2022-08-27T01:35:31.670Z,25.1
2022-08-27T01:36:48.774Z,27.2
2022-08-27T01:38:05.879Z,26.8
2022-08-27T01:39:21.999Z,24.6
2022-08-27T01:40:39.103Z,24.3
2022-08-27T01:41:56.207Z,27.2
2022-08-27T01:43:13.311Z,23.9
2022-08-27T01:44:30.415Z,24
2022-08-27T01:45:47.519Z,24.7
2022-08-27T01:47:04.623Z,25.1
2022-08-27T01:48:21.727Z,23.7
2022-08-27T01:49:38.831Z,24.8
2022-08-27T01:50:55.935Z,23.6
2022-08-27T01:52:13.039Z,26.6
2022-08-27T01:53:30.143Z,26.9
2022-08-27T01:54:47.247Z,24.6
2022-08-27T01:56:03.367Z,24.3
2022-08-27T01:57:20.471Z,25.8
2022-08-27T01:58:37.575Z,27.3
2022-08-27T01:59:54.679Z,25.7
2022-08-27T02:01:11.784Z,26
2022-08-27T02:02:28.888Z,25.4
2022-08-27T02:03:45.992Z,26.7
2022-08-27T02:05:03.096Z,25.8
2022-08-27T02:06:20.200Z,26.2
2022-08-27T02:07:37.304Z,25.9
2022-08-27T02:08:54.408Z,25.8
2022-08-27T02:10:11.512Z,25.2
2022-08-27T02:11:28.616Z,26.5
2022-08-27T02:12:44.737Z,27.3
2022-08-27T02:14:01.841Z,26.3
2022-08-27T02:15:18.945Z,27.8
2022-08-27T02:16:36.049Z,27.5
2022-08-27T02:17:53.153Z,24.2
2022-08-27T02:19:10.256Z,24.2
2022-08-27T02:20:27.360Z,22.5
2022-08-27T02:21:44.464Z,21.8
2022-08-27T02:23:01.568Z,23
2022-08-27T02:24:18.672Z,21.4
2022-08-27T02:25:35.776Z,21.9
2022-08-27T02:26:52.880Z,23.8
2022-08-27T02:28:09.984Z,22.5
2022-08-27T02:29:26.104Z,23
2022-08-27T02:30:43.208Z,21.2
2022-08-27T02:32:00.312Z,22.8
2022-08-27T02:33:17.416Z,20.9
2022-08-27T02:34:34.520Z,20.7
2022-08-27T02:35:51.624Z,23.2
2022-08-27T02:37:08.729Z,23
2022-08-27T02:38:25.833Z,21.5
2022-08-27T02:39:42.937Z,20
2022-08-27T02:41:00.041Z,21.4
2022-08-27T02:42:17.145Z,21.1
2022-08-27T02:43:34.248Z,19.8
2022-08-27T02:44:51.353Z,18.1
2022-08-27T02:46:07.473Z,17.2
2022-08-27T02:47:24.577Z,20.2
2022-08-27T02:48:41.681Z,20.6
2022-08-27T02:49:58.785Z,17.9
2022-08-27T02:51:15.889Z,16.6
2022-08-27T02:52:32.993Z,14.7
2022-08-27T02:53:50.098Z,15.9
2022-08-27T02:55:07.202Z,14.8
2022-08-27T02:56:24.306Z,14.5
2022-08-27T02:57:41.410Z,14.2
2022-08-27T02:58:58.514Z,14.5
2022-08-27T03:00:15.618Z,14.4
2022-08-27T03:01:32.723Z,15.4
2022-08-27T03:02:48.843Z,14.8
2022-08-27T03:04:05.947Z,16.5
2022-08-27T03:05:23.051Z,15.3
2022-08-27T03:06:40.155Z,13
2022-08-27T03:07:57.260Z,14.1
2022-08-27T03:09:14.364Z,14.9
2022-08-27T03:10:31.468Z,14.8
2022-08-27T03:11:48.572Z,13.8
2022-08-27T03:13:05.676Z,13.5
2022-08-27T03:14:22.780Z,15.2
2022-08-27T03:15:39.884Z,15.3
2022-08-27T03:16:56.988Z,13
2022-08-27T03:18:14.093Z,14.4
2022-08-27T03:19:30.213Z,13.2
2022-08-27T03:20:47.317Z,12.4
2022-08-27T03:22:04.421Z,14.8
2022-08-27T03:23:21.525Z,13.8
2022-08-27T03:24:38.629Z,12.6
2022-08-27T03:25:55.733Z,15
2022-08-27T03:27:12.838Z,14.7
2022-08-27T03:28:29.942Z,12.9
2022-08-27T03:29:47.046Z,12.6
2022-08-27T03:31:04.150Z,15.7
2022-08-27T03:32:21.254Z,15
2022-08-27T03:33:38.358Z,12.4
2022-08-27T03:34:55.463Z,12.3
2022-08-27T03:36:11.583Z,14.3
2022-08-27T03:37:28.687Z,14.6
2022-08-27T03:38:45.791Z,12.2
2022-08-27T03:40:02.895Z,12.3
2022-08-27T03:41:20.000Z,11.7
2022-08-27T03:42:37.104Z,14
2022-08-27T03:43:54.208Z,13.9
2022-08-27T03:45:11.312Z,11.7
2022-08-27T03:46:28.416Z,12.1
2022-08-27T03:47:45.520Z,11.8
2022-08-27T03:49:02.624Z,13.1
2022-08-27T03:50:19.728Z,12.7
2022-08-27T03:51:36.832Z,12.4
2022-08-27T03:52:52.953Z,12.7
2022-08-27T03:54:10.057Z,12.3
2022-08-27T03:55:27.161Z,12.2
2022-08-27T03:56:44.265Z,14.3
2022-08-27T03:58:01.369Z,13.4
2022-08-27T03:59:18.473Z,12.3
2022-08-27T04:00:35.577Z,12.5
2022-08-27T04:01:52.681Z,12.5
2022-08-27T04:03:09.785Z,10.9
2022-08-27T04:04:26.889Z,14.4
2022-08-27T04:05:43.994Z,13.8
2022-08-27T04:07:01.098Z,11.5
2022-08-27T04:08:18.202Z,13.1
2022-08-27T04:09:34.322Z,13.7
2022-08-27T04:10:51.426Z,11.9
2022-08-27T04:12:08.530Z,14
2022-08-27T04:13:25.634Z,14.8
2022-08-27T04:14:42.738Z,12.9
2022-08-27T04:15:58.858Z,14.8
2022-08-27T04:17:15.962Z,12.1
2022-08-27T04:18:33.066Z,11.7
2022-08-27T04:19:50.170Z,12.7
2022-08-27T04:21:07.274Z,11.5
2022-08-27T04:22:24.378Z,10.9
2022-08-27T04:23:41.482Z,13.2
2022-08-27T04:24:58.586Z,13.7
2022-08-27T04:26:15.691Z,12.6
2022-08-27T04:27:32.795Z,10.6
2022-08-27T04:28:49.899Z,12.4
2022-08-27T04:30:07.004Z,12.3
2022-08-27T04:31:24.108Z,12.3
2022-08-27T04:32:40.228Z,11.3
2022-08-27T04:33:57.332Z,10.5
2022-08-27T04:35:14.436Z,13
2022-08-27T04:36:31.540Z,13.1
2022-08-27T04:37:48.644Z,10.8
2022-08-27T04:39:05.748Z,11.5
2022-08-27T04:40:22.852Z,11.4
2022-08-27T04:41:39.956Z,11.8
2022-08-27T04:42:57.060Z,12.5
2022-08-27T04:44:14.163Z,10.6
2022-08-27T04:45:31.267Z,10.9
2022-08-27T04:46:48.371Z,10.8
2022-08-27T04:48:05.475Z,11
2022-08-27T04:49:21.595Z,11
2022-08-27T04:50:38.699Z,11.2
2022-08-27T04:51:55.802Z,12.7
2022-08-27T04:53:12.906Z,10.6
2022-08-27T04:54:30.010Z,11.7
2022-08-27T04:55:47.114Z,11.2
2022-08-27T04:57:04.218Z,10
2022-08-27T04:58:21.321Z,12.9
2022-08-27T04:59:38.425Z,11.7
2022-08-27T05:00:55.529Z,10.4
2022-08-27T05:02:12.633Z,12.7
2022-08-27T05:03:29.737Z,12.9
2022-08-27T05:04:46.841Z,10.9
2022-08-27T05:06:02.961Z,12.3
2022-08-27T05:07:20.065Z,11.1
2022-08-27T05:08:37.168Z,10.5
2022-08-27T05:09:54.272Z,12.6
2022-08-27T05:11:11.376Z,10.3
2022-08-27T05:12:28.480Z,10.9
2022-08-27T05:13:45.585Z,9.8
2022-08-27T05:15:02.689Z,9.7
2022-08-27T05:16:19.793Z,9.5
2022-08-27T05:17:36.897Z,11.2
2022-08-27T05:18:54.000Z,11.7
2022-08-27T05:20:11.104Z,9.3
2022-08-27T05:21:28.208Z,9.8
2022-08-27T05:22:44.328Z,11.2
2022-08-27T05:24:01.432Z,11
2022-08-27T05:25:18.536Z,8.8
2022-08-27T05:26:35.640Z,8.6
2022-08-27T05:27:52.744Z,11.4
2022-08-27T05:29:09.848Z,10.8
2022-08-27T05:30:26.952Z,9.2
2022-08-27T05:31:44.055Z,9.1
2022-08-27T05:33:01.160Z,9.6
2022-08-27T05:34:18.263Z,11.6
2022-08-27T05:35:35.367Z,12
2022-08-27T05:36:52.471Z,9.6
2022-08-27T05:38:09.575Z,9.5
2022-08-27T05:39:25.694Z,9.4
2022-08-27T05:40:42.798Z,11.1
2022-08-27T05:41:59.902Z,10.1
2022-08-27T05:43:17.006Z,10.1
2022-08-27T05:44:34.110Z,10.2
2022-08-27T05:45:51.214Z,10.8
2022-08-27T05:47:08.317Z,10.8
2022-08-27T05:48:25.421Z,11.8
2022-08-27T05:49:42.525Z,10
2022-08-27T05:50:59.629Z,13.1
2022-08-27T05:52:16.732Z,12.8
2022-08-27T05:53:33.836Z,10.4
2022-08-27T05:54:50.940Z,11.6
2022-08-27T05:56:07.060Z,12
2022-08-27T05:57:24.164Z,11.5
2022-08-27T05:58:41.268Z,11.6
2022-08-27T05:59:58.372Z,11.2
2022-08-27T06:01:15.475Z,13.4
2022-08-27T06:02:32.579Z,11.8
2022-08-27T06:03:49.683Z,10.9
2022-08-27T06:05:06.787Z,11.9
2022-08-27T06:06:23.891Z,12
2022-08-27T06:07:40.995Z,11.4
2022-08-27T06:08:58.099Z,13.4
2022-08-27T06:10:15.202Z,11.2
2022-08-27T06:11:32.306Z,12.1
2022-08-27T06:12:48.426Z,11
2022-08-27T06:14:05.530Z,11.1
2022-08-27T06:15:22.634Z,12.4
2022-08-27T06:16:39.738Z,11.7
2022-08-27T06:17:56.842Z,10.7
2022-08-27T06:19:13.945Z,10.9
2022-08-27T06:20:31.049Z,11.9
2022-08-27T06:21:48.153Z,12.5
2022-08-27T06:23:05.257Z,10.7
2022-08-27T06:24:22.360Z,11.1
2022-08-27T06:25:39.464Z,12.2
2022-08-27T06:26:56.568Z,11.6
2022-08-27T06:28:13.672Z,12.1
2022-08-27T06:29:29.792Z,10.3
2022-08-27T06:30:46.896Z,10.8
2022-08-27T06:32:03.999Z,11.4
2022-08-27T06:33:21.103Z,12.1
2022-08-27T06:34:38.207Z,11.3
2022-08-27T06:35:55.310Z,13.2
2022-08-27T06:37:12.414Z,10.5
2022-08-27T06:38:29.518Z,10.6
2022-08-27T06:39:46.622Z,10.5
2022-08-27T06:41:03.726Z,10.7
2022-08-27T06:42:20.829Z,10.4
2022-08-27T06:43:37.933Z,11.3
2022-08-27T06:44:55.037Z,10.7
2022-08-27T06:46:11.157Z,10.1
2022-08-27T06:47:28.261Z,11.7
2022-08-27T06:48:45.365Z,10.7
2022-08-27T06:50:02.469Z,13.3
2022-08-27T06:51:19.573Z,12.2
2022-08-27T06:52:36.677Z,10.5
2022-08-27T06:53:53.780Z,12.9
2022-08-27T06:55:10.884Z,13.1
2022-08-27T06:56:27.988Z,11.8
2022-08-27T06:57:45.092Z,13.1
2022-08-27T06:59:02.195Z,12.8
2022-08-27T07:00:19.299Z,11.4
2022-08-27T07:01:36.404Z,11.4
2022-08-27T07:02:52.524Z,10.8
2022-08-27T07:04:09.627Z,11
2022-08-27T07:05:26.731Z,12.9
2022-08-27T07:06:43.835Z,10.1
2022-08-27T07:08:00.939Z,12.8
2022-08-27T07:09:18.043Z,10.1
2022-08-27T07:10:35.147Z,10.2
2022-08-27T07:11:52.250Z,11.4
2022-08-27T07:13:09.354Z,10.1
2022-08-27T07:14:26.458Z,12.1
2022-08-27T07:15:43.562Z,10
2022-08-27T07:17:00.666Z,10.3
2022-08-27T07:18:17.770Z,11.6
2022-08-27T07:19:33.890Z,12
2022-08-27T07:20:50.994Z,8.9
2022-08-27T07:22:08.098Z,9.9
2022-08-27T07:23:25.202Z,9.9
2022-08-27T07:24:42.306Z,9.6
2022-08-27T07:25:59.410Z,8.9
2022-08-27T07:27:16.514Z,8.1
2022-08-27T07:28:33.618Z,8.4
2022-08-27T07:29:50.722Z,8.5
2022-08-27T07:31:07.826Z,9.7
2022-08-27T07:32:24.930Z,8.9
2022-08-27T07:33:42.034Z,8.8
2022-08-27T07:34:59.138Z,7.6
2022-08-27T07:36:15.259Z,7.4
2022-08-27T07:37:32.363Z,9.1
2022-08-27T07:38:49.467Z,9.3
2022-08-27T07:40:06.571Z,10.6
2022-08-27T07:41:23.675Z,8
2022-08-27T07:42:40.779Z,7.5
2022-08-27T07:43:57.883Z,7.6
2022-08-27T07:45:14.987Z,9.2
2022-08-27T07:46:32.091Z,7.7
2022-08-27T07:47:49.195Z,8.1
2022-08-27T07:49:06.299Z,8.1
2022-08-27T07:50:23.403Z,8.3
2022-08-27T07:51:40.507Z,8.3
2022-08-27T07:52:56.628Z,7.7
2022-08-27T07:54:13.732Z,9.9
2022-08-27T07:55:30.836Z,8.5
2022-08-27T07:56:47.940Z,7.2
2022-08-27T07:58:05.045Z,9.1
2022-08-27T07:59:22.149Z,9.4
2022-08-27T08:00:39.253Z,9.2
2022-08-27T08:01:56.357Z,8.1
2022-08-27T08:03:13.461Z,8.5
2022-08-27T08:04:30.565Z,8.8
2022-08-27T08:05:47.669Z,7.3
2022-08-27T08:07:04.774Z,9.9
2022-08-27T08:08:21.878Z,8.2
2022-08-27T08:09:37.998Z,8.7
2022-08-27T08:10:55.103Z,9.1
2022-08-27T08:12:12.207Z,7.7
2022-08-27T08:13:29.311Z,9.3
2022-08-27T08:14:46.415Z,8.5
2022-08-27T08:16:03.519Z,7.1
2022-08-27T08:17:20.623Z,9.5
2022-08-27T08:18:37.727Z,7.7
2022-08-27T08:19:54.832Z,8.2
2022-08-27T08:21:11.936Z,7.6
2022-08-27T08:22:29.040Z,7.4
2022-08-27T08:23:46.144Z,10.1
2022-08-27T08:25:03.248Z,7.3
2022-08-27T08:26:19.369Z,7.6
2022-08-27T08:27:36.473Z,10.5
2022-08-27T08:28:53.577Z,8.2
2022-08-27T08:30:10.681Z,8.4
2022-08-27T08:31:27.784Z,9.6
2022-08-27T08:32:44.888Z,8.1
2022-08-27T08:34:01.008Z,7.4
2022-08-27T08:35:18.112Z,8.9
2022-08-27T08:36:35.216Z,8.4
2022-08-27T08:37:52.320Z,8.1
2022-08-27T08:39:09.425Z,8.5
2022-08-27T08:40:26.529Z,8.3
2022-08-27T08:41:43.633Z,7.3
2022-08-27T08:43:00.737Z,9.3
2022-08-27T08:44:17.841Z,8.8
2022-08-27T08:45:34.945Z,11.1
2022-08-27T08:46:52.050Z,8.3
2022-08-27T08:48:09.152Z,8
2022-08-27T08:49:26.256Z,8
2022-08-27T08:50:42.376Z,9.7
2022-08-27T08:51:59.480Z,8.2
2022-08-27T08:53:16.584Z,7.9
2022-08-27T08:54:33.689Z,7.7
2022-08-27T08:55:50.793Z,9.8
2022-08-27T08:57:07.897Z,7.5
2022-08-27T08:58:25.001Z,9.2
2022-08-27T08:59:42.105Z,8.7
2022-08-27T09:00:59.210Z,6.7
2022-08-27T09:02:16.314Z,8.9
2022-08-27T09:03:33.418Z,7.8
2022-08-27T09:04:50.522Z,8.3
2022-08-27T09:06:07.627Z,9.1
2022-08-27T09:07:23.747Z,8.4
2022-08-27T09:08:40.851Z,8.7
2022-08-27T09:09:57.955Z,10.6
2022-08-27T09:11:15.059Z,9.7
2022-08-27T09:12:32.164Z,8.1
2022-08-27T09:13:49.268Z,9.7
2022-08-27T09:15:06.372Z,7.6
2022-08-27T09:16:23.476Z,10.6
2022-08-27T09:17:40.581Z,7.5
2022-08-27T09:18:57.685Z,9.1
2022-08-27T09:20:14.789Z,7.9
2022-08-27T09:21:31.893Z,7.3
2022-08-27T09:22:48.998Z,7.2
2022-08-27T09:24:05.118Z,10.1
2022-08-27T09:25:22.222Z,9.7
2022-08-27T09:26:39.326Z,7.3
2022-08-27T09:27:56.431Z,7.4
2022-08-27T09:29:13.535Z,9.9
2022-08-27T09:30:30.639Z,9.5
2022-08-27T09:31:47.743Z,7.9
2022-08-27T09:33:04.847Z,8.1
2022-08-27T09:34:21.951Z,8.3
2022-08-27T09:35:39.055Z,8.5
2022-08-27T09:36:56.159Z,8.2
2022-08-27T09:38:13.263Z,8.8
2022-08-27T09:39:30.367Z,8
2022-08-27T09:40:46.487Z,7.9
2022-08-27T09:42:03.591Z,8.2
2022-08-27T09:43:20.695Z,9.7
2022-08-27T09:44:37.799Z,8.6
2022-08-27T09:45:54.903Z,9.8
2022-08-27T09:47:12.007Z,7.6
2022-08-27T09:48:29.111Z,7.7
2022-08-27T09:49:46.215Z,8.2
2022-08-27T09:51:03.319Z,9.4
2022-08-27T09:52:20.423Z,8.4
2022-08-27T09:53:37.527Z,8.6
2022-08-27T09:54:54.631Z,8.7
2022-08-27T09:56:11.735Z,8.9
2022-08-27T09:57:27.855Z,9.2
2022-08-27T09:58:44.959Z,9.1
2022-08-27T10:00:02.063Z,9.2
2022-08-27T10:01:19.168Z,9.3
2022-08-27T10:02:36.272Z,8.8
2022-08-27T10:03:53.376Z,8.8
2022-08-27T10:05:10.480Z,9.1
2022-08-27T10:06:27.584Z,9
2022-08-27T10:07:44.687Z,9.3
2022-08-27T10:09:01.791Z,9.1
2022-08-27T10:10:18.895Z,9.4
2022-08-27T10:11:36.000Z,9.3
2022-08-27T10:12:53.103Z,9.2
2022-08-27T10:14:09.224Z,9.3
2022-08-27T10:15:26.328Z,9
2022-08-27T10:16:43.432Z,8.7
2022-08-27T10:18:00.535Z,9.5
2022-08-27T10:19:17.639Z,9.3
2022-08-27T10:20:34.743Z,9.3
2022-08-27T10:21:51.847Z,9.2
2022-08-27T10:23:08.952Z,9.4
2022-08-27T10:24:26.055Z,9.3
2022-08-27T10:25:43.159Z,9.3
2022-08-27T10:27:00.263Z,8.9
2022-08-27T10:28:17.367Z,9.3
2022-08-27T10:29:34.471Z,8.7
2022-08-27T10:30:50.591Z,9.4
2022-08-27T10:32:07.695Z,9.1
2022-08-27T10:33:24.799Z,8.7
2022-08-27T10:34:41.903Z,8.8
2022-08-27T10:35:59.007Z,9.5
2022-08-27T10:37:16.111Z,9.2
2022-08-27T10:38:33.215Z,9.7
2022-08-27T10:39:50.319Z,9.6
2022-08-27T10:41:07.423Z,9.2
2022-08-27T10:42:24.527Z,9.5
2022-08-27T10:43:41.632Z,9.3
2022-08-27T10:44:58.736Z,9.2
2022-08-27T10:46:15.840Z,9.7
2022-08-27T10:47:31.960Z,9.6
2022-08-27T10:48:49.064Z,9.6
2022-08-27T10:50:06.168Z,9.8
2022-08-27T10:51:23.272Z,9.3
2022-08-27T10:52:40.376Z,9.2
2022-08-27T10:53:57.480Z,9.4
2022-08-27T10:55:14.585Z,8.6
2022-08-27T10:56:31.689Z,8.5
2022-08-27T10:57:48.793Z,8.5
2022-08-27T10:59:05.897Z,8.5
2022-08-27T11:00:23.000Z,8.3
2022-08-27T11:01:40.104Z,9.7
2022-08-27T11:02:57.208Z,9.9
2022-08-27T11:04:13.328Z,9.2
2022-08-27T11:05:30.432Z,10.4
2022-08-27T11:06:47.536Z,10.6
2022-08-27T11:08:04.641Z,10.6
2022-08-27T11:09:21.744Z,10.5
2022-08-27T11:10:38.848Z,10.9
2022-08-27T11:11:55.952Z,10.5
2022-08-27T11:13:13.056Z,10.2
2022-08-27T11:14:30.160Z,10.8
2022-08-27T11:15:47.264Z,10.4
2022-08-27T11:17:04.368Z,10.8
2022-08-27T11:18:21.472Z,10.3
2022-08-27T11:19:38.576Z,12.1
2022-08-27T11:20:54.696Z,10.3
2022-08-27T11:22:11.800Z,10.7
2022-08-27T11:23:28.904Z,8.2
2022-08-27T11:24:46.008Z,11.7
2022-08-27T11:26:03.112Z,9.6
2022-08-27T11:27:20.216Z,9.5
2022-08-27T11:28:37.320Z,10.6
2022-08-27T11:29:54.424Z,9.8
2022-08-27T11:31:11.528Z,10.4
2022-08-27T11:32:28.632Z,9.5
2022-08-27T11:33:45.735Z,9.4
2022-08-27T11:35:02.839Z,9.4
2022-08-27T11:36:19.943Z,9.4
2022-08-27T11:37:36.063Z,9
2022-08-27T11:38:53.167Z,9.1
2022-08-27T11:40:10.271Z,9.6
2022-08-27T11:41:27.375Z,10.6
2022-08-27T11:42:44.479Z,8.5
2022-08-27T11:44:01.583Z,11.1
2022-08-27T11:45:18.687Z,9.7
2022-08-27T11:46:35.791Z,8.6
2022-08-27T11:47:52.895Z,9.5
2022-08-27T11:49:09.999Z,10.3
2022-08-27T11:50:27.103Z,9.4
2022-08-27T11:51:44.207Z,9
2022-08-27T11:53:01.311Z,10
2022-08-27T11:54:17.431Z,8.8
2022-08-27T11:55:34.535Z,8.7
2022-08-27T11:56:51.639Z,8.3
2022-08-27T11:58:08.743Z,10
2022-08-27T11:59:25.847Z,8.8
2022-08-27T12:00:42.952Z,9
2022-08-27T12:02:00.056Z,8.7
2022-08-27T12:03:17.160Z,9.1
2022-08-27T12:04:34.265Z,8.2
2022-08-27T12:05:51.369Z,7.9
2022-08-27T12:07:08.473Z,9.5
2022-08-27T12:08:25.577Z,8.9
2022-08-27T12:09:42.681Z,8
2022-08-27T12:10:58.802Z,8
2022-08-27T12:12:15.906Z,7.7
2022-08-27T12:13:33.010Z,9.5
2022-08-27T12:14:50.114Z,9.2
2022-08-27T12:16:07.218Z,8.1
2022-08-27T12:17:24.322Z,8.3
2022-08-27T12:18:41.426Z,7.9
2022-08-27T12:19:58.530Z,8.9
2022-08-27T12:21:15.634Z,9.8
2022-08-27T12:22:32.738Z,8.3
2022-08-27T12:23:49.842Z,8
2022-08-27T12:25:06.946Z,8.1
2022-08-27T12:26:24.051Z,8.6
2022-08-27T12:27:40.171Z,9
2022-08-27T12:28:57.275Z,9.9
2022-08-27T12:30:14.379Z,9.8
2022-08-27T12:31:31.483Z,9.6
2022-08-27T12:32:48.587Z,10
2022-08-27T12:34:05.691Z,10.3
2022-08-27T12:35:22.795Z,9.2
2022-08-27T12:36:39.900Z,9.2
2022-08-27T12:37:57.004Z,8.4
2022-08-27T12:39:14.108Z,9.4
2022-08-27T12:40:31.212Z,8.9
2022-08-27T12:41:48.316Z,8.7
2022-08-27T12:43:05.421Z,8.6
2022-08-27T12:44:21.541Z,8.9
2022-08-27T12:45:38.645Z,8.9
2022-08-27T12:46:55.749Z,9.6
2022-08-27T12:48:12.854Z,8.9
2022-08-27T12:49:29.958Z,9.1
2022-08-27T12:50:47.062Z,9.2
2022-08-27T12:52:03.183Z,9
2022-08-27T12:53:20.287Z,8.9
2022-08-27T12:54:37.391Z,9
2022-08-27T12:55:54.496Z,9
2022-08-27T12:57:11.600Z,9.7
2022-08-27T12:58:28.704Z,8.6
2022-08-27T12:59:45.808Z,11
2022-08-27T13:01:02.913Z,8.8
2022-08-27T13:02:20.017Z,6.5
2022-08-27T13:03:37.121Z,9.6
2022-08-27T13:04:54.225Z,10.6
2022-08-27T13:06:11.330Z,8.3
2022-08-27T13:07:28.434Z,9.7
2022-08-27T13:08:44.554Z,9.2
2022-08-27T13:10:01.658Z,8.4
2022-08-27T13:11:18.764Z,9.5
2022-08-27T13:12:35.868Z,9.3
2022-08-27T13:13:52.973Z,8.2
2022-08-27T13:15:10.077Z,10.9
2022-08-27T13:16:27.181Z,7.4
2022-08-27T13:17:44.285Z,9.1
2022-08-27T13:19:01.389Z,8.7
2022-08-27T13:20:18.493Z,7.4
2022-08-27T13:21:35.598Z,7.9
2022-08-27T13:22:52.702Z,10
2022-08-27T13:24:09.806Z,7.7
2022-08-27T13:25:25.927Z,7.7
2022-08-27T13:26:43.031Z,9.3
2022-08-27T13:28:00.135Z,7.5
2022-08-27T13:29:17.239Z,7.6
2022-08-27T13:30:34.344Z,9
2022-08-27T13:31:51.448Z,10
2022-08-27T13:33:08.552Z,7.5
2022-08-27T13:34:25.657Z,7.6
2022-08-27T13:35:42.761Z,8.9
2022-08-27T13:36:59.865Z,9.6
2022-08-27T13:38:16.969Z,8.3
2022-08-27T13:39:34.074Z,8
2022-08-27T13:40:51.178Z,7.9
2022-08-27T13:42:07.298Z,8.7
2022-08-27T13:43:24.403Z,8.6
2022-08-27T13:44:41.507Z,8.3
2022-08-27T13:45:58.611Z,8.1
2022-08-27T13:47:15.716Z,10.4
2022-08-27T13:48:32.820Z,9.5
2022-08-27T13:49:49.924Z,11.6
2022-08-27T13:51:07.028Z,10.1
2022-08-27T13:52:24.132Z,8
2022-08-27T13:53:41.236Z,9
2022-08-27T13:54:58.341Z,10.7
2022-08-27T13:56:15.445Z,8.5
2022-08-27T13:57:32.549Z,10
2022-08-27T13:58:48.669Z,8.8
2022-08-27T14:00:05.773Z,8.7
2022-08-27T14:01:22.877Z,9.2
2022-08-27T14:02:39.981Z,8.8
2022-08-27T14:03:57.085Z,8.9
2022-08-27T14:05:14.189Z,10.1
2022-08-27T14:06:31.294Z,8.7
2022-08-27T14:07:48.398Z,9.9
2022-08-27T14:09:05.500Z,8.6
2022-08-27T14:10:22.604Z,8.5
2022-08-27T14:11:39.708Z,10.6
2022-08-27T14:12:56.812Z,8.1
2022-08-27T14:14:13.916Z,7.3
2022-08-27T14:15:30.036Z,10.1
2022-08-27T14:16:47.140Z,8.1
2022-08-27T14:18:04.244Z,8.1
2022-08-27T14:19:21.348Z,10.3
2022-08-27T14:20:38.449Z,9.9
2022-08-27T14:21:55.553Z,8.6
2022-08-27T14:23:12.657Z,7.8
2022-08-27T14:24:29.761Z,9.2
2022-08-27T14:25:46.865Z,9
2022-08-27T14:27:03.969Z,8.4
2022-08-27T14:28:21.073Z,7.9
2022-08-27T14:29:38.177Z,7.8
2022-08-27T14:30:55.281Z,8.8
2022-08-27T14:32:11.401Z,8.9
2022-08-27T14:33:28.505Z,8.2
2022-08-27T14:34:45.609Z,8.6
2022-08-27T14:36:02.713Z,10.4
2022-08-27T14:37:19.816Z,9.9
2022-08-27T14:38:36.920Z,11.3
2022-08-27T14:39:54.024Z,10.9
2022-08-27T14:41:11.128Z,8
2022-08-27T14:42:28.232Z,10.7
2022-08-27T14:43:45.336Z,10.9
2022-08-27T14:45:02.440Z,9
2022-08-27T14:46:19.544Z,11.3
2022-08-27T14:47:36.648Z,9.6
2022-08-27T14:48:52.769Z,9.8
2022-08-27T14:50:09.873Z,10.4
2022-08-27T14:51:26.977Z,9.4
2022-08-27T14:52:44.081Z,9
2022-08-27T14:54:01.185Z,12.2
2022-08-27T14:55:18.290Z,9
2022-08-27T14:56:35.394Z,11
2022-08-27T14:57:52.498Z,10.2
2022-08-27T14:59:09.600Z,8.7
2022-08-27T15:00:26.704Z,8.9
2022-08-27T15:01:43.808Z,9.3
2022-08-27T15:03:00.910Z,9.4
2022-08-27T15:04:18.014Z,9.7
2022-08-27T15:05:34.135Z,9.1
2022-08-27T15:06:51.240Z,9.8
2022-08-27T15:08:08.344Z,9.1
2022-08-27T15:09:25.448Z,9.2
2022-08-27T15:10:42.552Z,9.1
2022-08-27T15:11:59.657Z,8.7
2022-08-27T15:13:16.761Z,8.9
2022-08-27T15:14:33.865Z,9
2022-08-27T15:15:50.970Z,9.6
2022-08-27T15:17:08.074Z,9.1
2022-08-27T15:18:25.178Z,9.5
2022-08-27T15:19:42.282Z,9.4
2022-08-27T15:20:59.386Z,8.6
2022-08-27T15:22:15.507Z,8.6
2022-08-27T15:23:32.611Z,9
2022-08-27T15:24:49.715Z,8.3
2022-08-27T15:26:06.819Z,8
2022-08-27T15:27:23.923Z,7.9
2022-08-27T15:28:41.027Z,9.5
2022-08-27T15:29:58.131Z,10.1
2022-08-27T15:31:15.235Z,8.2
2022-08-27T15:32:32.339Z,8.4
2022-08-27T15:33:49.443Z,8.6
2022-08-27T15:35:06.547Z,9.6
2022-08-27T15:36:23.651Z,9.3
2022-08-27T15:37:40.755Z,9.5
2022-08-27T15:38:56.875Z,9.7
2022-08-27T15:40:13.979Z,9.1
2022-08-27T15:41:31.084Z,9.5
2022-08-27T15:42:48.189Z,10.7
2022-08-27T15:44:05.292Z,7.6
2022-08-27T15:45:22.397Z,9
2022-08-27T15:46:39.501Z,10.2
2022-08-27T15:47:56.605Z,11
2022-08-27T15:49:13.709Z,8
2022-08-27T15:50:30.813Z,10.1
2022-08-27T15:51:47.916Z,9.2
2022-08-27T15:53:05.020Z,10.5
2022-08-27T15:54:22.124Z,10.7
2022-08-27T15:55:38.244Z,8.7
2022-08-27T15:56:55.348Z,10.1
2022-08-27T15:58:12.453Z,10.6
2022-08-27T15:59:29.557Z,8.8
2022-08-27T16:00:46.661Z,10.7
2022-08-27T16:02:03.765Z,8.9
2022-08-27T16:03:20.868Z,8.8
2022-08-27T16:04:37.973Z,10.9
2022-08-27T16:05:55.077Z,9.7
2022-08-27T16:07:12.181Z,9.2
2022-08-27T16:08:29.285Z,11
2022-08-27T16:09:46.389Z,9.1
2022-08-27T16:11:03.494Z,9.2
2022-08-27T16:12:19.614Z,9.8
2022-08-27T16:13:36.718Z,10.3
2022-08-27T16:14:53.822Z,8.7
2022-08-27T16:16:10.926Z,9
2022-08-27T16:17:28.030Z,9.8
2022-08-27T16:18:45.134Z,9.9
2022-08-27T16:20:02.238Z,9.3
2022-08-27T16:21:19.342Z,9.2
2022-08-27T16:22:36.446Z,9
2022-08-27T16:23:53.550Z,9.9
2022-08-27T16:25:10.654Z,9.8
2022-08-27T16:26:27.758Z,9.8
2022-08-27T16:27:44.862Z,9.8
2022-08-27T16:29:00.982Z,9.7
2022-08-27T16:30:18.086Z,9.7
2022-08-27T16:31:35.190Z,9.9
2022-08-27T16:32:52.294Z,9.3
2022-08-27T16:34:09.398Z,9.8
2022-08-27T16:35:26.502Z,9.3
2022-08-27T16:36:43.606Z,9.3
2022-08-27T16:38:00.709Z,10.4
2022-08-27T16:39:17.813Z,7.8
2022-08-27T16:40:34.917Z,10.3
2022-08-27T16:41:52.022Z,10.2
2022-08-27T16:43:09.126Z,10.1
2022-08-27T16:44:26.231Z,10.3
2022-08-27T16:45:42.351Z,11
2022-08-27T16:46:59.455Z,10.2
2022-08-27T16:48:16.559Z,11
2022-08-27T16:49:33.663Z,10.6
2022-08-27T16:50:50.767Z,8.4
2022-08-27T16:52:07.871Z,10.3
2022-08-27T16:53:24.975Z,8.7
2022-08-27T16:54:42.080Z,8.8
2022-08-27T16:55:59.184Z,11
2022-08-27T16:57:16.288Z,8.6
2022-08-27T16:58:33.390Z,8.5
2022-08-27T16:59:50.494Z,11.3
2022-08-27T17:01:07.598Z,8.8
2022-08-27T17:02:23.718Z,9.1
2022-08-27T17:03:40.822Z,10.9
2022-08-27T17:04:57.926Z,8.6
2022-08-27T17:06:15.030Z,8.9
2022-08-27T17:07:32.134Z,10.7
2022-08-27T17:08:49.238Z,10.3
2022-08-27T17:10:05.358Z,8.7
2022-08-27T17:11:22.462Z,8.8
2022-08-27T17:12:39.566Z,10.3
2022-08-27T17:13:56.670Z,10.1
2022-08-27T17:15:13.773Z,9
2022-08-27T17:16:30.878Z,8.7
2022-08-27T17:17:47.982Z,8.4
2022-08-27T17:19:05.086Z,9.7
2022-08-27T17:20:22.190Z,9.3
2022-08-27T17:21:39.294Z,9.3
2022-08-27T17:22:56.398Z,9.4
2022-08-27T17:24:13.501Z,9.3
2022-08-27T17:25:30.605Z,9.6
2022-08-27T17:26:46.725Z,10.8
2022-08-27T17:28:03.830Z,10
2022-08-27T17:29:20.934Z,10.5